sensor_id;sensor_type;location;lat;lon;timestamp;P1;durP1;ratioP1;P2;durP2;ratioP2
31680;SDS011;18281;51.364;9.566;2023-05-16T00:01:10;7.10;;;6.43;;
31680;SDS011;18281;51.364;9.566;2023-05-16T00:03:36;8.40;;;7.13;;
31680;SDS011;18281;51.364;9.566;2023-05-16T00:06:02;7.15;;;6.38;;
31680;SDS011;18281;51.364;9.566;2023-05-16T00:08:29;10.05;;;9.02;;
31680;SDS011;18281;51.364;9.566;2023-05-16T00:10:55;9.23;;;8.23;;
31680;SDS011;18281;51.364;9.566;2023-05-16T00:13:20;9.52;;;8.60;;
31680;SDS011;18281;51.364;9.566;2023-05-16T00:15:50;11.98;;;9.68;;
31680;SDS011;18281;51.364;9.566;2023-05-16T00:18:16;10.93;;;8.13;;
31680;SDS011;18281;51.364;9.566;2023-05-16T00:20:44;9.88;;;8.88;;
31680;SDS011;18281;51.364;9.566;2023-05-16T00:23:10;11.20;;;8.40;;
31680;SDS011;18281;51.364;9.566;2023-05-16T00:25:36;9.85;;;8.85;;
31680;SDS011;18281;51.364;9.566;2023-05-16T00:28:02;11.43;;;8.65;;
31680;SDS011;18281;51.364;9.566;2023-05-16T00:30:27;9.60;;;8.00;;
31680;SDS011;18281;51.364;9.566;2023-05-16T00:32:53;13.18;;;9.38;;
31680;SDS011;18281;51.364;9.566;2023-05-16T00:35:20;14.85;;;9.05;;
31680;SDS011;18281;51.364;9.566;2023-05-16T00:37:45;10.20;;;9.13;;
31680;SDS011;18281;51.364;9.566;2023-05-16T00:40:10;10.13;;;8.63;;
31680;SDS011;18281;51.364;9.566;2023-05-16T00:42:37;10.32;;;9.25;;
31680;SDS011;18281;51.364;9.566;2023-05-16T00:45:03;10.10;;;8.98;;
31680;SDS011;18281;51.364;9.566;2023-05-16T00:47:28;10.15;;;9.15;;
31680;SDS011;18281;51.364;9.566;2023-05-16T00:49:54;9.88;;;8.88;;
31680;SDS011;18281;51.364;9.566;2023-05-16T00:52:19;9.45;;;8.50;;
31680;SDS011;18281;51.364;9.566;2023-05-16T00:54:45;9.93;;;8.93;;
31680;SDS011;18281;51.364;9.566;2023-05-16T00:57:10;10.98;;;8.05;;
31680;SDS011;18281;51.364;9.566;2023-05-16T00:59:36;10.13;;;9.13;;
31680;SDS011;18281;51.364;9.566;2023-05-16T01:02:01;12.43;;;7.72;;
31680;SDS011;18281;51.364;9.566;2023-05-16T01:04:27;11.85;;;9.13;;
31680;SDS011;18281;51.364;9.566;2023-05-16T01:06:53;10.20;;;7.50;;
31680;SDS011;18281;51.364;9.566;2023-05-16T01:09:20;9.55;;;8.65;;
31680;SDS011;18281;51.364;9.566;2023-05-16T01:11:51;9.85;;;8.82;;
31680;SDS011;18281;51.364;9.566;2023-05-16T01:20:04;11.93;;;9.52;;
31680;SDS011;18281;51.364;9.566;2023-05-16T01:22:45;10.07;;;8.73;;
31680;SDS011;18281;51.364;9.566;2023-05-16T01:28:04;10.48;;;9.38;;
31680;SDS011;18281;51.364;9.566;2023-05-16T01:30:33;9.55;;;8.20;;
31680;SDS011;18281;51.364;9.566;2023-05-16T01:33:00;9.23;;;8.18;;
31680;SDS011;18281;51.364;9.566;2023-05-16T01:35:25;14.98;;;9.55;;
31680;SDS011;18281;51.364;9.566;2023-05-16T01:37:55;9.88;;;8.70;;
31680;SDS011;18281;51.364;9.566;2023-05-16T01:40:35;10.13;;;8.85;;
31680;SDS011;18281;51.364;9.566;2023-05-16T01:43:10;9.45;;;8.45;;
31680;SDS011;18281;51.364;9.566;2023-05-16T01:48:07;10.68;;;8.32;;
31680;SDS011;18281;51.364;9.566;2023-05-16T01:50:38;11.45;;;9.75;;
31680;SDS011;18281;51.364;9.566;2023-05-16T01:53:14;9.48;;;8.45;;
31680;SDS011;18281;51.364;9.566;2023-05-16T01:58:12;8.80;;;7.90;;
31680;SDS011;18281;51.364;9.566;2023-05-16T02:00:39;13.40;;;8.30;;
31680;SDS011;18281;51.364;9.566;2023-05-16T02:03:06;10.15;;;8.68;;
31680;SDS011;18281;51.364;9.566;2023-05-16T02:05:32;9.35;;;8.45;;
31680;SDS011;18281;51.364;9.566;2023-05-16T02:07:57;11.13;;;8.93;;
31680;SDS011;18281;51.364;9.566;2023-05-16T02:10:23;10.63;;;9.52;;
31680;SDS011;18281;51.364;9.566;2023-05-16T02:12:49;15.88;;;9.30;;
31680;SDS011;18281;51.364;9.566;2023-05-16T02:15:15;15.73;;;10.23;;
31680;SDS011;18281;51.364;9.566;2023-05-16T02:17:41;11.43;;;8.75;;
31680;SDS011;18281;51.364;9.566;2023-05-16T02:20:06;10.20;;;9.10;;
31680;SDS011;18281;51.364;9.566;2023-05-16T02:22:38;11.88;;;10.20;;
31680;SDS011;18281;51.364;9.566;2023-05-16T02:25:04;10.68;;;9.10;;
31680;SDS011;18281;51.364;9.566;2023-05-16T02:27:30;11.77;;;10.32;;
31680;SDS011;18281;51.364;9.566;2023-05-16T02:29:56;12.25;;;10.00;;
31680;SDS011;18281;51.364;9.566;2023-05-16T02:32:21;13.45;;;10.88;;
31680;SDS011;18281;51.364;9.566;2023-05-16T02:34:47;11.15;;;9.57;;
31680;SDS011;18281;51.364;9.566;2023-05-16T02:37:12;10.20;;;9.07;;
31680;SDS011;18281;51.364;9.566;2023-05-16T02:39:37;14.25;;;9.43;;
31680;SDS011;18281;51.364;9.566;2023-05-16T02:42:03;12.25;;;9.95;;
31680;SDS011;18281;51.364;9.566;2023-05-16T02:44:29;11.38;;;9.43;;
31680;SDS011;18281;51.364;9.566;2023-05-16T02:46:55;10.63;;;9.50;;
31680;SDS011;18281;51.364;9.566;2023-05-16T02:49:20;10.15;;;8.57;;
31680;SDS011;18281;51.364;9.566;2023-05-16T02:51:45;12.25;;;10.75;;
31680;SDS011;18281;51.364;9.566;2023-05-16T02:54:11;10.52;;;9.38;;
31680;SDS011;18281;51.364;9.566;2023-05-16T02:56:36;12.60;;;9.60;;
31680;SDS011;18281;51.364;9.566;2023-05-16T02:59:02;10.40;;;9.30;;
31680;SDS011;18281;51.364;9.566;2023-05-16T03:01:28;11.02;;;9.13;;
31680;SDS011;18281;51.364;9.566;2023-05-16T03:03:54;10.95;;;9.38;;
31680;SDS011;18281;51.364;9.566;2023-05-16T03:06:19;12.88;;;8.68;;
31680;SDS011;18281;51.364;9.566;2023-05-16T03:08:45;11.75;;;9.02;;
31680;SDS011;18281;51.364;9.566;2023-05-16T03:11:11;9.48;;;7.95;;
31680;SDS011;18281;51.364;9.566;2023-05-16T03:13:37;9.73;;;8.13;;
31680;SDS011;18281;51.364;9.566;2023-05-16T03:16:02;10.05;;;8.50;;
31680;SDS011;18281;51.364;9.566;2023-05-16T03:18:28;12.00;;;9.30;;
31680;SDS011;18281;51.364;9.566;2023-05-16T03:20:54;11.63;;;8.98;;
31680;SDS011;18281;51.364;9.566;2023-05-16T03:23:19;12.63;;;9.77;;
31680;SDS011;18281;51.364;9.566;2023-05-16T03:25:45;12.98;;;9.68;;
31680;SDS011;18281;51.364;9.566;2023-05-16T03:28:11;10.95;;;9.18;;
31680;SDS011;18281;51.364;9.566;2023-05-16T03:30:36;10.80;;;8.95;;
31680;SDS011;18281;51.364;9.566;2023-05-16T03:33:02;11.52;;;9.95;;
31680;SDS011;18281;51.364;9.566;2023-05-16T03:35:28;11.75;;;9.63;;
31680;SDS011;18281;51.364;9.566;2023-05-16T03:37:55;14.00;;;11.50;;
31680;SDS011;18281;51.364;9.566;2023-05-16T03:40:20;12.63;;;9.73;;
31680;SDS011;18281;51.364;9.566;2023-05-16T03:42:46;12.95;;;9.80;;
31680;SDS011;18281;51.364;9.566;2023-05-16T03:45:11;13.50;;;9.93;;
31680;SDS011;18281;51.364;9.566;2023-05-16T03:47:37;11.23;;;9.10;;
31680;SDS011;18281;51.364;9.566;2023-05-16T03:50:03;13.48;;;8.73;;
31680;SDS011;18281;51.364;9.566;2023-05-16T03:52:29;11.18;;;9.00;;
31680;SDS011;18281;51.364;9.566;2023-05-16T03:54:55;13.48;;;10.10;;
31680;SDS011;18281;51.364;9.566;2023-05-16T03:57:20;11.57;;;9.25;;
31680;SDS011;18281;51.364;9.566;2023-05-16T03:59:46;10.10;;;8.90;;
31680;SDS011;18281;51.364;9.566;2023-05-16T04:02:11;10.82;;;9.02;;
31680;SDS011;18281;51.364;9.566;2023-05-16T04:04:37;10.75;;;8.55;;
31680;SDS011;18281;51.364;9.566;2023-05-16T04:07:02;11.75;;;8.50;;
31680;SDS011;18281;51.364;9.566;2023-05-16T04:09:28;10.30;;;8.95;;
31680;SDS011;18281;51.364;9.566;2023-05-16T04:11:53;10.40;;;8.73;;
31680;SDS011;18281;51.364;9.566;2023-05-16T04:14:22;11.05;;;8.93;;
31680;SDS011;18281;51.364;9.566;2023-05-16T04:16:48;10.65;;;8.88;;
31680;SDS011;18281;51.364;9.566;2023-05-16T04:19:13;11.88;;;8.55;;
31680;SDS011;18281;51.364;9.566;2023-05-16T04:21:38;10.75;;;8.35;;
31680;SDS011;18281;51.364;9.566;2023-05-16T04:24:04;10.23;;;7.90;;
31680;SDS011;18281;51.364;9.566;2023-05-16T04:26:30;9.30;;;7.68;;
31680;SDS011;18281;51.364;9.566;2023-05-16T04:28:56;9.85;;;7.00;;
31680;SDS011;18281;51.364;9.566;2023-05-16T04:31:22;7.82;;;6.63;;
31680;SDS011;18281;51.364;9.566;2023-05-16T04:33:49;6.85;;;5.97;;
31680;SDS011;18281;51.364;9.566;2023-05-16T04:36:14;6.45;;;5.82;;
31680;SDS011;18281;51.364;9.566;2023-05-16T04:38:39;8.38;;;5.82;;
31680;SDS011;18281;51.364;9.566;2023-05-16T04:41:05;6.78;;;6.05;;
31680;SDS011;18281;51.364;9.566;2023-05-16T04:43:31;7.15;;;5.80;;
31680;SDS011;18281;51.364;9.566;2023-05-16T04:45:56;7.45;;;5.28;;
31680;SDS011;18281;51.364;9.566;2023-05-16T04:48:22;9.80;;;5.40;;
31680;SDS011;18281;51.364;9.566;2023-05-16T04:50:48;9.07;;;5.97;;
31680;SDS011;18281;51.364;9.566;2023-05-16T04:53:13;7.80;;;5.43;;
31680;SDS011;18281;51.364;9.566;2023-05-16T04:55:39;7.18;;;5.35;;
31680;SDS011;18281;51.364;9.566;2023-05-16T04:58:04;6.75;;;5.40;;
31680;SDS011;18281;51.364;9.566;2023-05-16T05:00:30;6.25;;;5.43;;
31680;SDS011;18281;51.364;9.566;2023-05-16T05:02:56;7.45;;;4.80;;
31680;SDS011;18281;51.364;9.566;2023-05-16T05:05:21;9.18;;;6.13;;
31680;SDS011;18281;51.364;9.566;2023-05-16T05:07:47;6.78;;;5.82;;
31680;SDS011;18281;51.364;9.566;2023-05-16T05:10:12;7.38;;;5.40;;
31680;SDS011;18281;51.364;9.566;2023-05-16T05:12:38;5.68;;;4.85;;
31680;SDS011;18281;51.364;9.566;2023-05-16T05:15:03;6.35;;;4.88;;
31680;SDS011;18281;51.364;9.566;2023-05-16T05:17:30;4.65;;;4.20;;
31680;SDS011;18281;51.364;9.566;2023-05-16T05:19:55;5.13;;;4.03;;
31680;SDS011;18281;51.364;9.566;2023-05-16T05:22:21;6.13;;;3.95;;
31680;SDS011;18281;51.364;9.566;2023-05-16T05:24:46;4.20;;;3.85;;
31680;SDS011;18281;51.364;9.566;2023-05-16T05:27:12;4.13;;;3.58;;
31680;SDS011;18281;51.364;9.566;2023-05-16T05:29:37;4.25;;;3.60;;
31680;SDS011;18281;51.364;9.566;2023-05-16T05:32:03;4.45;;;3.58;;
31680;SDS011;18281;51.364;9.566;2023-05-16T05:34:29;4.43;;;2.97;;
31680;SDS011;18281;51.364;9.566;2023-05-16T05:36:55;3.30;;;2.97;;
31680;SDS011;18281;51.364;9.566;2023-05-16T05:39:20;7.03;;;3.00;;
31680;SDS011;18281;51.364;9.566;2023-05-16T05:41:46;4.78;;;2.88;;
31680;SDS011;18281;51.364;9.566;2023-05-16T05:44:11;3.88;;;2.55;;
31680;SDS011;18281;51.364;9.566;2023-05-16T05:46:36;6.75;;;2.65;;
31680;SDS011;18281;51.364;9.566;2023-05-16T05:49:02;2.78;;;2.53;;
31680;SDS011;18281;51.364;9.566;2023-05-16T05:51:27;5.15;;;2.35;;
31680;SDS011;18281;51.364;9.566;2023-05-16T05:53:53;3.30;;;2.40;;
31680;SDS011;18281;51.364;9.566;2023-05-16T05:56:19;2.35;;;2.10;;
31680;SDS011;18281;51.364;9.566;2023-05-16T05:58:45;3.15;;;2.03;;
31680;SDS011;18281;51.364;9.566;2023-05-16T06:01:10;3.50;;;2.00;;
31680;SDS011;18281;51.364;9.566;2023-05-16T06:03:36;2.28;;;1.50;;
31680;SDS011;18281;51.364;9.566;2023-05-16T06:06:02;3.42;;;1.65;;
31680;SDS011;18281;51.364;9.566;2023-05-16T06:08:28;5.68;;;1.98;;
31680;SDS011;18281;51.364;9.566;2023-05-16T06:10:53;4.22;;;1.40;;
31680;SDS011;18281;51.364;9.566;2023-05-16T06:13:19;2.10;;;1.30;;
31680;SDS011;18281;51.364;9.566;2023-05-16T06:15:48;1.65;;;1.10;;
31680;SDS011;18281;51.364;9.566;2023-05-16T06:18:17;4.13;;;1.45;;
31680;SDS011;18281;51.364;9.566;2023-05-16T06:20:42;3.35;;;1.10;;
31680;SDS011;18281;51.364;9.566;2023-05-16T06:23:08;3.55;;;1.33;;
31680;SDS011;18281;51.364;9.566;2023-05-16T06:25:33;2.33;;;1.42;;
31680;SDS011;18281;51.364;9.566;2023-05-16T06:27:58;5.22;;;1.27;;
31680;SDS011;18281;51.364;9.566;2023-05-16T06:30:24;4.35;;;1.02;;
31680;SDS011;18281;51.364;9.566;2023-05-16T06:32:49;2.45;;;1.02;;
31680;SDS011;18281;51.364;9.566;2023-05-16T06:35:14;4.03;;;1.35;;
31680;SDS011;18281;51.364;9.566;2023-05-16T06:37:40;4.50;;;1.23;;
31680;SDS011;18281;51.364;9.566;2023-05-16T06:40:05;4.00;;;1.40;;
31680;SDS011;18281;51.364;9.566;2023-05-16T06:42:31;2.88;;;0.93;;
31680;SDS011;18281;51.364;9.566;2023-05-16T06:44:57;3.83;;;1.20;;
31680;SDS011;18281;51.364;9.566;2023-05-16T06:47:22;4.95;;;1.00;;
31680;SDS011;18281;51.364;9.566;2023-05-16T06:49:48;3.83;;;1.20;;
31680;SDS011;18281;51.364;9.566;2023-05-16T06:52:14;4.32;;;1.48;;
31680;SDS011;18281;51.364;9.566;2023-05-16T06:54:40;12.90;;;1.48;;
31680;SDS011;18281;51.364;9.566;2023-05-16T06:57:05;8.93;;;0.90;;
31680;SDS011;18281;51.364;9.566;2023-05-16T06:59:32;3.88;;;1.20;;
31680;SDS011;18281;51.364;9.566;2023-05-16T07:01:58;5.50;;;1.20;;
31680;SDS011;18281;51.364;9.566;2023-05-16T07:04:24;3.33;;;1.30;;
31680;SDS011;18281;51.364;9.566;2023-05-16T07:06:50;3.72;;;1.38;;
31680;SDS011;18281;51.364;9.566;2023-05-16T07:09:15;4.97;;;1.88;;
31680;SDS011;18281;51.364;9.566;2023-05-16T07:11:41;7.10;;;1.42;;
31680;SDS011;18281;51.364;9.566;2023-05-16T07:14:06;5.22;;;1.23;;
31680;SDS011;18281;51.364;9.566;2023-05-16T07:16:31;4.93;;;1.48;;
31680;SDS011;18281;51.364;9.566;2023-05-16T07:18:57;6.25;;;1.48;;
31680;SDS011;18281;51.364;9.566;2023-05-16T07:21:22;5.57;;;1.38;;
31680;SDS011;18281;51.364;9.566;2023-05-16T07:23:47;6.38;;;1.67;;
31680;SDS011;18281;51.364;9.566;2023-05-16T07:26:13;7.10;;;1.52;;
31680;SDS011;18281;51.364;9.566;2023-05-16T07:28:38;7.60;;;2.13;;
31680;SDS011;18281;51.364;9.566;2023-05-16T07:31:04;4.65;;;1.25;;
31680;SDS011;18281;51.364;9.566;2023-05-16T07:33:30;12.68;;;1.85;;
31680;SDS011;18281;51.364;9.566;2023-05-16T07:35:56;6.32;;;1.67;;
31680;SDS011;18281;51.364;9.566;2023-05-16T07:38:21;6.20;;;1.30;;
31680;SDS011;18281;51.364;9.566;2023-05-16T07:40:46;5.28;;;1.50;;
31680;SDS011;18281;51.364;9.566;2023-05-16T07:43:12;9.43;;;1.35;;
31680;SDS011;18281;51.364;9.566;2023-05-16T07:45:37;11.45;;;1.38;;
31680;SDS011;18281;51.364;9.566;2023-05-16T07:48:03;9.52;;;1.92;;
31680;SDS011;18281;51.364;9.566;2023-05-16T07:50:28;6.13;;;1.52;;
31680;SDS011;18281;51.364;9.566;2023-05-16T07:52:53;7.47;;;1.50;;
31680;SDS011;18281;51.364;9.566;2023-05-16T07:55:18;10.60;;;2.10;;
31680;SDS011;18281;51.364;9.566;2023-05-16T07:57:46;10.93;;;1.42;;
31680;SDS011;18281;51.364;9.566;2023-05-16T08:00:12;6.03;;;1.42;;
31680;SDS011;18281;51.364;9.566;2023-05-16T08:02:37;4.65;;;1.02;;
31680;SDS011;18281;51.364;9.566;2023-05-16T08:05:03;5.30;;;1.50;;
31680;SDS011;18281;51.364;9.566;2023-05-16T08:07:29;7.97;;;1.50;;
31680;SDS011;18281;51.364;9.566;2023-05-16T08:09:55;6.50;;;1.60;;
31680;SDS011;18281;51.364;9.566;2023-05-16T08:12:20;7.78;;;1.65;;
31680;SDS011;18281;51.364;9.566;2023-05-16T08:14:46;9.15;;;2.15;;
31680;SDS011;18281;51.364;9.566;2023-05-16T08:17:11;5.97;;;1.20;;
31680;SDS011;18281;51.364;9.566;2023-05-16T08:19:36;6.60;;;1.27;;
31680;SDS011;18281;51.364;9.566;2023-05-16T08:22:02;10.10;;;1.40;;
31680;SDS011;18281;51.364;9.566;2023-05-16T08:24:27;5.05;;;1.38;;
31680;SDS011;18281;51.364;9.566;2023-05-16T08:26:52;6.25;;;1.52;;
31680;SDS011;18281;51.364;9.566;2023-05-16T08:29:18;8.50;;;1.98;;
31680;SDS011;18281;51.364;9.566;2023-05-16T08:31:43;8.85;;;1.60;;
31680;SDS011;18281;51.364;9.566;2023-05-16T08:34:08;9.07;;;1.83;;
31680;SDS011;18281;51.364;9.566;2023-05-16T08:36:35;7.95;;;1.30;;
31680;SDS011;18281;51.364;9.566;2023-05-16T08:39:00;11.48;;;1.30;;
31680;SDS011;18281;51.364;9.566;2023-05-16T08:41:26;5.55;;;1.30;;
31680;SDS011;18281;51.364;9.566;2023-05-16T08:43:51;4.43;;;1.30;;
31680;SDS011;18281;51.364;9.566;2023-05-16T08:46:17;6.47;;;1.42;;
31680;SDS011;18281;51.364;9.566;2023-05-16T08:48:46;10.23;;;1.50;;
31680;SDS011;18281;51.364;9.566;2023-05-16T08:51:15;10.23;;;1.42;;
31680;SDS011;18281;51.364;9.566;2023-05-16T08:53:53;8.05;;;1.58;;
31680;SDS011;18281;51.364;9.566;2023-05-16T08:56:23;7.47;;;1.58;;
31680;SDS011;18281;51.364;9.566;2023-05-16T08:58:49;8.32;;;1.33;;
31680;SDS011;18281;51.364;9.566;2023-05-16T09:01:19;6.93;;;1.33;;
31680;SDS011;18281;51.364;9.566;2023-05-16T09:03:46;9.02;;;1.42;;
31680;SDS011;18281;51.364;9.566;2023-05-16T09:06:13;7.40;;;1.10;;
31680;SDS011;18281;51.364;9.566;2023-05-16T09:08:43;10.98;;;1.40;;
31680;SDS011;18281;51.364;9.566;2023-05-16T09:11:08;5.93;;;1.07;;
31680;SDS011;18281;51.364;9.566;2023-05-16T09:13:33;6.97;;;1.00;;
31680;SDS011;18281;51.364;9.566;2023-05-16T09:16:09;4.15;;;1.02;;
31680;SDS011;18281;51.364;9.566;2023-05-16T09:18:34;8.15;;;1.20;;
31680;SDS011;18281;51.364;9.566;2023-05-16T09:21:01;7.57;;;1.10;;
31680;SDS011;18281;51.364;9.566;2023-05-16T09:23:28;4.70;;;1.10;;
31680;SDS011;18281;51.364;9.566;2023-05-16T09:25:54;7.55;;;1.23;;
31680;SDS011;18281;51.364;9.566;2023-05-16T09:28:19;4.47;;;1.20;;
31680;SDS011;18281;51.364;9.566;2023-05-16T09:30:45;5.90;;;1.15;;
31680;SDS011;18281;51.364;9.566;2023-05-16T09:33:10;4.55;;;1.00;;
31680;SDS011;18281;51.364;9.566;2023-05-16T09:35:36;5.32;;;1.40;;
31680;SDS011;18281;51.364;9.566;2023-05-16T09:38:02;5.15;;;1.20;;
31680;SDS011;18281;51.364;9.566;2023-05-16T09:40:28;4.85;;;1.08;;
31680;SDS011;18281;51.364;9.566;2023-05-16T09:43:01;3.97;;;0.90;;
31680;SDS011;18281;51.364;9.566;2023-05-16T09:45:29;5.28;;;0.95;;
31680;SDS011;18281;51.364;9.566;2023-05-16T09:47:59;6.95;;;1.70;;
31680;SDS011;18281;51.364;9.566;2023-05-16T09:50:38;4.53;;;1.20;;
31680;SDS011;18281;51.364;9.566;2023-05-16T09:53:05;6.85;;;1.58;;
31680;SDS011;18281;51.364;9.566;2023-05-16T09:55:31;6.00;;;1.23;;
31680;SDS011;18281;51.364;9.566;2023-05-16T09:57:56;7.75;;;1.65;;
31680;SDS011;18281;51.364;9.566;2023-05-16T10:00:22;6.53;;;1.30;;
31680;SDS011;18281;51.364;9.566;2023-05-16T10:02:53;3.45;;;1.05;;
31680;SDS011;18281;51.364;9.566;2023-05-16T10:05:21;4.97;;;1.13;;
31680;SDS011;18281;51.364;9.566;2023-05-16T10:07:50;4.03;;;1.10;;
31680;SDS011;18281;51.364;9.566;2023-05-16T10:10:20;4.93;;;1.02;;
31680;SDS011;18281;51.364;9.566;2023-05-16T10:12:46;3.70;;;1.13;;
31680;SDS011;18281;51.364;9.566;2023-05-16T10:15:12;5.05;;;1.02;;
31680;SDS011;18281;51.364;9.566;2023-05-16T10:17:39;4.38;;;1.15;;
31680;SDS011;18281;51.364;9.566;2023-05-16T10:20:07;4.93;;;1.10;;
31680;SDS011;18281;51.364;9.566;2023-05-16T10:22:35;5.83;;;1.43;;
31680;SDS011;18281;51.364;9.566;2023-05-16T10:25:11;4.28;;;0.82;;
31680;SDS011;18281;51.364;9.566;2023-05-16T10:27:41;4.97;;;0.95;;
31680;SDS011;18281;51.364;9.566;2023-05-16T10:30:08;6.22;;;1.20;;
31680;SDS011;18281;51.364;9.566;2023-05-16T10:32:35;5.25;;;1.00;;
31680;SDS011;18281;51.364;9.566;2023-05-16T10:35:02;6.80;;;1.10;;
31680;SDS011;18281;51.364;9.566;2023-05-16T10:37:29;6.22;;;1.00;;
31680;SDS011;18281;51.364;9.566;2023-05-16T10:39:56;3.25;;;0.90;;
31680;SDS011;18281;51.364;9.566;2023-05-16T10:42:24;4.07;;;1.00;;
31680;SDS011;18281;51.364;9.566;2023-05-16T10:44:52;6.40;;;1.33;;
31680;SDS011;18281;51.364;9.566;2023-05-16T10:47:20;4.10;;;0.82;;
31680;SDS011;18281;51.364;9.566;2023-05-16T10:49:46;5.00;;;1.15;;
31680;SDS011;18281;51.364;9.566;2023-05-16T10:52:11;6.03;;;1.10;;
31680;SDS011;18281;51.364;9.566;2023-05-16T10:54:41;3.38;;;0.70;;
31680;SDS011;18281;51.364;9.566;2023-05-16T10:57:15;4.22;;;1.17;;
31680;SDS011;18281;51.364;9.566;2023-05-16T10:59:46;2.63;;;1.05;;
31680;SDS011;18281;51.364;9.566;2023-05-16T11:02:22;4.68;;;0.88;;
31680;SDS011;18281;51.364;9.566;2023-05-16T11:04:51;4.75;;;0.93;;
31680;SDS011;18281;51.364;9.566;2023-05-16T11:07:19;5.35;;;1.10;;
31680;SDS011;18281;51.364;9.566;2023-05-16T11:09:51;3.10;;;0.70;;
31680;SDS011;18281;51.364;9.566;2023-05-16T11:12:34;8.95;;;1.20;;
31680;SDS011;18281;51.364;9.566;2023-05-16T11:15:22;3.88;;;1.02;;
31680;SDS011;18281;51.364;9.566;2023-05-16T11:17:49;9.32;;;2.05;;
31680;SDS011;18281;51.364;9.566;2023-05-16T11:23:17;4.88;;;1.35;;
31680;SDS011;18281;51.364;9.566;2023-05-16T11:26:04;5.57;;;1.27;;
31680;SDS011;18281;51.364;9.566;2023-05-16T11:28:28;5.57;;;1.40;;
31680;SDS011;18281;51.364;9.566;2023-05-16T11:30:55;3.85;;;1.30;;
31680;SDS011;18281;51.364;9.566;2023-05-16T11:33:22;4.70;;;1.10;;
31680;SDS011;18281;51.364;9.566;2023-05-16T11:36:01;6.90;;;1.17;;
31680;SDS011;18281;51.364;9.566;2023-05-16T11:38:31;2.75;;;0.88;;
31680;SDS011;18281;51.364;9.566;2023-05-16T11:41:00;3.30;;;1.00;;
31680;SDS011;18281;51.364;9.566;2023-05-16T11:43:27;5.60;;;1.00;;
31680;SDS011;18281;51.364;9.566;2023-05-16T11:45:55;3.17;;;0.85;;
31680;SDS011;18281;51.364;9.566;2023-05-16T11:48:22;4.63;;;0.70;;
31680;SDS011;18281;51.364;9.566;2023-05-16T11:50:49;5.38;;;1.15;;
31680;SDS011;18281;51.364;9.566;2023-05-16T11:53:14;4.68;;;0.85;;
31680;SDS011;18281;51.364;9.566;2023-05-16T11:55:40;3.05;;;0.80;;
31680;SDS011;18281;51.364;9.566;2023-05-16T11:58:06;2.78;;;0.95;;
31680;SDS011;18281;51.364;9.566;2023-05-16T12:00:31;4.28;;;0.65;;
31680;SDS011;18281;51.364;9.566;2023-05-16T12:03:01;5.72;;;1.17;;
31680;SDS011;18281;51.364;9.566;2023-05-16T12:05:28;4.07;;;1.20;;
31680;SDS011;18281;51.364;9.566;2023-05-16T12:07:55;4.03;;;1.10;;
31680;SDS011;18281;51.364;9.566;2023-05-16T12:10:21;4.20;;;1.02;;
31680;SDS011;18281;51.364;9.566;2023-05-16T12:12:48;3.65;;;0.95;;
31680;SDS011;18281;51.364;9.566;2023-05-16T12:15:16;2.83;;;0.90;;
31680;SDS011;18281;51.364;9.566;2023-05-16T12:17:42;3.63;;;1.35;;
31680;SDS011;18281;51.364;9.566;2023-05-16T12:20:09;4.10;;;1.08;;
31680;SDS011;18281;51.364;9.566;2023-05-16T12:22:38;5.47;;;1.02;;
31680;SDS011;18281;51.364;9.566;2023-05-16T12:25:21;3.85;;;0.77;;
31680;SDS011;18281;51.364;9.566;2023-05-16T12:27:55;5.20;;;0.90;;
31680;SDS011;18281;51.364;9.566;2023-05-16T12:30:43;3.00;;;1.00;;
31680;SDS011;18281;51.364;9.566;2023-05-16T12:33:12;2.15;;;0.70;;
31680;SDS011;18281;51.364;9.566;2023-05-16T12:35:40;6.28;;;1.23;;
31680;SDS011;18281;51.364;9.566;2023-05-16T12:38:08;2.53;;;0.60;;
31680;SDS011;18281;51.364;9.566;2023-05-16T12:40:38;3.80;;;0.82;;
31680;SDS011;18281;51.364;9.566;2023-05-16T12:43:15;5.00;;;0.98;;
31680;SDS011;18281;51.364;9.566;2023-05-16T12:45:48;1.92;;;0.65;;
31680;SDS011;18281;51.364;9.566;2023-05-16T12:48:18;2.85;;;0.60;;
31680;SDS011;18281;51.364;9.566;2023-05-16T12:50:44;2.63;;;1.10;;
31680;SDS011;18281;51.364;9.566;2023-05-16T12:53:13;6.00;;;0.70;;
31680;SDS011;18281;51.364;9.566;2023-05-16T12:55:40;1.85;;;0.40;;
31680;SDS011;18281;51.364;9.566;2023-05-16T12:58:07;3.92;;;0.77;;
31680;SDS011;18281;51.364;9.566;2023-05-16T13:00:33;6.93;;;1.60;;
31680;SDS011;18281;51.364;9.566;2023-05-16T13:02:58;5.50;;;1.50;;
31680;SDS011;18281;51.364;9.566;2023-05-16T13:05:24;4.80;;;0.95;;
31680;SDS011;18281;51.364;9.566;2023-05-16T13:07:49;3.88;;;0.75;;
31680;SDS011;18281;51.364;9.566;2023-05-16T13:10:17;7.65;;;1.00;;
31680;SDS011;18281;51.364;9.566;2023-05-16T13:12:43;5.53;;;1.10;;
31680;SDS011;18281;51.364;9.566;2023-05-16T13:15:09;4.80;;;1.10;;
31680;SDS011;18281;51.364;9.566;2023-05-16T13:17:39;4.93;;;1.00;;
31680;SDS011;18281;51.364;9.566;2023-05-16T13:20:06;6.25;;;1.25;;
31680;SDS011;18281;51.364;9.566;2023-05-16T13:22:39;5.55;;;1.20;;
31680;SDS011;18281;51.364;9.566;2023-05-16T13:25:05;4.18;;;1.15;;
31680;SDS011;18281;51.364;9.566;2023-05-16T13:27:31;5.65;;;0.80;;
31680;SDS011;18281;51.364;9.566;2023-05-16T13:29:56;4.43;;;0.70;;
31680;SDS011;18281;51.364;9.566;2023-05-16T13:32:22;2.05;;;0.85;;
31680;SDS011;18281;51.364;9.566;2023-05-16T13:34:48;6.57;;;2.13;;
31680;SDS011;18281;51.364;9.566;2023-05-16T13:37:14;7.28;;;2.53;;
31680;SDS011;18281;51.364;9.566;2023-05-16T13:39:39;6.18;;;2.83;;
31680;SDS011;18281;51.364;9.566;2023-05-16T13:42:05;6.30;;;1.90;;
31680;SDS011;18281;51.364;9.566;2023-05-16T13:44:31;3.65;;;0.90;;
31680;SDS011;18281;51.364;9.566;2023-05-16T13:46:57;4.70;;;1.05;;
31680;SDS011;18281;51.364;9.566;2023-05-16T13:49:22;5.25;;;1.58;;
31680;SDS011;18281;51.364;9.566;2023-05-16T13:51:48;3.95;;;1.52;;
31680;SDS011;18281;51.364;9.566;2023-05-16T13:54:13;5.40;;;1.58;;
31680;SDS011;18281;51.364;9.566;2023-05-16T13:56:39;4.32;;;1.00;;
31680;SDS011;18281;51.364;9.566;2023-05-16T13:59:04;4.28;;;1.02;;
31680;SDS011;18281;51.364;9.566;2023-05-16T14:01:29;1.95;;;0.90;;
31680;SDS011;18281;51.364;9.566;2023-05-16T14:03:55;2.97;;;0.73;;
31680;SDS011;18281;51.364;9.566;2023-05-16T14:06:20;2.95;;;0.90;;
31680;SDS011;18281;51.364;9.566;2023-05-16T14:08:46;4.88;;;1.00;;
31680;SDS011;18281;51.364;9.566;2023-05-16T14:11:11;4.80;;;1.20;;
31680;SDS011;18281;51.364;9.566;2023-05-16T14:13:36;1.58;;;0.82;;
31680;SDS011;18281;51.364;9.566;2023-05-16T14:16:04;3.22;;;0.90;;
31680;SDS011;18281;51.364;9.566;2023-05-16T14:18:30;1.88;;;0.90;;
31680;SDS011;18281;51.364;9.566;2023-05-16T14:20:55;3.53;;;0.70;;
31680;SDS011;18281;51.364;9.566;2023-05-16T14:23:21;3.83;;;0.52;;
31680;SDS011;18281;51.364;9.566;2023-05-16T14:25:46;5.05;;;0.70;;
31680;SDS011;18281;51.364;9.566;2023-05-16T14:28:12;1.00;;;0.50;;
31680;SDS011;18281;51.364;9.566;2023-05-16T14:30:37;2.17;;;0.68;;
31680;SDS011;18281;51.364;9.566;2023-05-16T14:33:03;5.03;;;0.80;;
31680;SDS011;18281;51.364;9.566;2023-05-16T14:35:29;2.95;;;0.85;;
31680;SDS011;18281;51.364;9.566;2023-05-16T14:37:55;2.70;;;0.75;;
31680;SDS011;18281;51.364;9.566;2023-05-16T14:40:20;1.48;;;0.57;;
31680;SDS011;18281;51.364;9.566;2023-05-16T14:42:46;3.25;;;0.65;;
31680;SDS011;18281;51.364;9.566;2023-05-16T14:45:11;4.93;;;0.80;;
31680;SDS011;18281;51.364;9.566;2023-05-16T14:47:36;4.18;;;1.05;;
31680;SDS011;18281;51.364;9.566;2023-05-16T14:50:02;1.65;;;0.40;;
31680;SDS011;18281;51.364;9.566;2023-05-16T14:52:28;1.95;;;0.70;;
31680;SDS011;18281;51.364;9.566;2023-05-16T14:54:53;2.88;;;0.60;;
31680;SDS011;18281;51.364;9.566;2023-05-16T14:57:18;2.38;;;0.60;;